Stroby Egede, Denmark
Current Conditions -  °F | °C
As of 8:50 AM on Thursday 23 Oct 2014 (Local Time) from EKRK Reporting Station
Broken Clouds Broken Clouds  
Wind Chill: 11°   Ceiling: 1800
Heat Index: 11°   Visibility: 6mi
Dew Point:   Wind: 13mph
Humidity: 88%   Direction: 120°ESE
Pressure: 30.09"   Gusts: NA
Location:  55.41°N, 12.25°E
Report Text: EKRK 230650Z AUTO 12011KT 9999NDV FEW014/// BKN018///BKN022/// 11/09 Q1019
Loading
Personal Weather Stations






























Interactive Weather Map
Tropical Storm Tracking
New forecast layout! Learn more

10-Day Weather Forecast

Advertisements
Track Severe Weather on mobile